sensor_id;sensor_type;location;lat;lon;timestamp;P1;durP1;ratioP1;P2;durP2;ratioP2
82387;SDS011;72027;47.420;9.310;2024-01-07T00:01:35;18.10;;;11.43;;
82387;SDS011;72027;47.420;9.310;2024-01-07T00:04:05;16.23;;;10.93;;
82387;SDS011;72027;47.420;9.310;2024-01-07T00:06:32;16.05;;;10.50;;
82387;SDS011;72027;47.420;9.310;2024-01-07T00:09:00;16.40;;;10.15;;
82387;SDS011;72027;47.420;9.310;2024-01-07T00:11:28;17.58;;;11.75;;
82387;SDS011;72027;47.420;9.310;2024-01-07T00:13:56;14.95;;;9.98;;
82387;SDS011;72027;47.420;9.310;2024-01-07T00:16:23;16.98;;;10.85;;
82387;SDS011;72027;47.420;9.310;2024-01-07T00:18:51;16.05;;;10.75;;
82387;SDS011;72027;47.420;9.310;2024-01-07T00:21:20;17.48;;;11.43;;
82387;SDS011;72027;47.420;9.310;2024-01-07T00:23:48;17.33;;;10.38;;
82387;SDS011;72027;47.420;9.310;2024-01-07T00:26:16;16.58;;;11.90;;
82387;SDS011;72027;47.420;9.310;2024-01-07T00:28:44;19.00;;;11.63;;
82387;SDS011;72027;47.420;9.310;2024-01-07T00:31:11;15.70;;;10.50;;
82387;SDS011;72027;47.420;9.310;2024-01-07T00:33:39;16.48;;;10.88;;
82387;SDS011;72027;47.420;9.310;2024-01-07T00:36:08;17.65;;;10.55;;
82387;SDS011;72027;47.420;9.310;2024-01-07T00:38:37;16.38;;;10.13;;
82387;SDS011;72027;47.420;9.310;2024-01-07T00:41:05;16.25;;;10.35;;
82387;SDS011;72027;47.420;9.310;2024-01-07T00:43:32;16.55;;;10.13;;
82387;SDS011;72027;47.420;9.310;2024-01-07T00:46:00;19.92;;;11.68;;
82387;SDS011;72027;47.420;9.310;2024-01-07T00:48:28;20.50;;;12.23;;
82387;SDS011;72027;47.420;9.310;2024-01-07T00:50:56;16.27;;;10.82;;
82387;SDS011;72027;47.420;9.310;2024-01-07T00:53:24;12.90;;;8.82;;
82387;SDS011;72027;47.420;9.310;2024-01-07T00:55:53;15.73;;;9.15;;
82387;SDS011;72027;47.420;9.310;2024-01-07T00:58:21;13.15;;;9.35;;
82387;SDS011;72027;47.420;9.310;2024-01-07T01:00:48;13.38;;;8.65;;
82387;SDS011;72027;47.420;9.310;2024-01-07T01:03:17;10.23;;;7.03;;
82387;SDS011;72027;47.420;9.310;2024-01-07T01:05:45;10.10;;;7.10;;
82387;SDS011;72027;47.420;9.310;2024-01-07T01:08:13;12.13;;;7.68;;
82387;SDS011;72027;47.420;9.310;2024-01-07T01:10:41;9.90;;;6.75;;
82387;SDS011;72027;47.420;9.310;2024-01-07T01:13:11;9.80;;;6.85;;
82387;SDS011;72027;47.420;9.310;2024-01-07T01:15:39;9.07;;;6.05;;
82387;SDS011;72027;47.420;9.310;2024-01-07T01:18:06;8.55;;;5.65;;
82387;SDS011;72027;47.420;9.310;2024-01-07T01:20:34;8.57;;;5.45;;
82387;SDS011;72027;47.420;9.310;2024-01-07T01:23:02;9.55;;;6.28;;
82387;SDS011;72027;47.420;9.310;2024-01-07T01:25:30;7.85;;;5.63;;
82387;SDS011;72027;47.420;9.310;2024-01-07T01:27:57;8.07;;;5.20;;
82387;SDS011;72027;47.420;9.310;2024-01-07T01:30:27;6.28;;;4.38;;
82387;SDS011;72027;47.420;9.310;2024-01-07T01:32:58;6.30;;;4.40;;
82387;SDS011;72027;47.420;9.310;2024-01-07T01:35:26;7.13;;;4.45;;
82387;SDS011;72027;47.420;9.310;2024-01-07T01:37:54;7.63;;;5.65;;
82387;SDS011;72027;47.420;9.310;2024-01-07T01:40:21;6.07;;;4.47;;
82387;SDS011;72027;47.420;9.310;2024-01-07T01:42:49;8.07;;;5.75;;
82387;SDS011;72027;47.420;9.310;2024-01-07T01:45:18;6.95;;;5.28;;
82387;SDS011;72027;47.420;9.310;2024-01-07T01:47:47;9.13;;;6.00;;
82387;SDS011;72027;47.420;9.310;2024-01-07T01:50:16;7.88;;;5.57;;
82387;SDS011;72027;47.420;9.310;2024-01-07T01:52:44;10.25;;;6.57;;
82387;SDS011;72027;47.420;9.310;2024-01-07T01:55:13;8.43;;;6.47;;
82387;SDS011;72027;47.420;9.310;2024-01-07T01:57:41;8.60;;;6.45;;
82387;SDS011;72027;47.420;9.310;2024-01-07T02:00:13;8.45;;;5.75;;
82387;SDS011;72027;47.420;9.310;2024-01-07T02:02:41;7.95;;;5.68;;
82387;SDS011;72027;47.420;9.310;2024-01-07T02:05:10;8.77;;;5.53;;
82387;SDS011;72027;47.420;9.310;2024-01-07T02:07:41;7.05;;;4.78;;
82387;SDS011;72027;47.420;9.310;2024-01-07T02:10:09;5.90;;;5.00;;
82387;SDS011;72027;47.420;9.310;2024-01-07T02:12:36;8.73;;;6.30;;
82387;SDS011;72027;47.420;9.310;2024-01-07T02:15:05;8.00;;;5.43;;
82387;SDS011;72027;47.420;9.310;2024-01-07T02:17:33;7.00;;;4.97;;
82387;SDS011;72027;47.420;9.310;2024-01-07T02:20:01;7.22;;;5.13;;
82387;SDS011;72027;47.420;9.310;2024-01-07T02:22:30;8.32;;;5.68;;
82387;SDS011;72027;47.420;9.310;2024-01-07T02:24:59;7.10;;;5.30;;
82387;SDS011;72027;47.420;9.310;2024-01-07T02:27:27;6.80;;;4.97;;
82387;SDS011;72027;47.420;9.310;2024-01-07T02:29:55;7.82;;;5.63;;
82387;SDS011;72027;47.420;9.310;2024-01-07T02:32:23;7.55;;;5.68;;
82387;SDS011;72027;47.420;9.310;2024-01-07T02:34:51;8.52;;;6.13;;
82387;SDS011;72027;47.420;9.310;2024-01-07T02:37:19;8.07;;;6.07;;
82387;SDS011;72027;47.420;9.310;2024-01-07T02:39:47;9.20;;;5.68;;
82387;SDS011;72027;47.420;9.310;2024-01-07T02:42:22;11.10;;;7.07;;
82387;SDS011;72027;47.420;9.310;2024-01-07T02:44:50;12.15;;;6.38;;
82387;SDS011;72027;47.420;9.310;2024-01-07T02:47:18;8.63;;;6.00;;
82387;SDS011;72027;47.420;9.310;2024-01-07T02:49:45;9.55;;;5.93;;
82387;SDS011;72027;47.420;9.310;2024-01-07T02:52:13;9.15;;;6.22;;
82387;SDS011;72027;47.420;9.310;2024-01-07T02:54:41;7.30;;;5.38;;
82387;SDS011;72027;47.420;9.310;2024-01-07T02:57:09;6.70;;;5.10;;
82387;SDS011;72027;47.420;9.310;2024-01-07T02:59:38;6.65;;;4.88;;
82387;SDS011;72027;47.420;9.310;2024-01-07T03:02:06;8.93;;;6.38;;
82387;SDS011;72027;47.420;9.310;2024-01-07T03:04:33;13.63;;;8.30;;
82387;SDS011;72027;47.420;9.310;2024-01-07T03:07:01;9.45;;;6.57;;
82387;SDS011;72027;47.420;9.310;2024-01-07T03:09:29;10.30;;;7.10;;
82387;SDS011;72027;47.420;9.310;2024-01-07T03:11:57;7.50;;;5.60;;
82387;SDS011;72027;47.420;9.310;2024-01-07T03:14:25;10.82;;;6.38;;
82387;SDS011;72027;47.420;9.310;2024-01-07T03:16:54;7.53;;;5.22;;
82387;SDS011;72027;47.420;9.310;2024-01-07T03:19:22;6.60;;;4.60;;
82387;SDS011;72027;47.420;9.310;2024-01-07T03:21:50;6.22;;;4.90;;
82387;SDS011;72027;47.420;9.310;2024-01-07T03:24:18;6.43;;;4.85;;
82387;SDS011;72027;47.420;9.310;2024-01-07T03:26:46;6.32;;;4.60;;
82387;SDS011;72027;47.420;9.310;2024-01-07T03:29:14;6.97;;;4.90;;
82387;SDS011;72027;47.420;9.310;2024-01-07T03:31:41;7.90;;;5.63;;
82387;SDS011;72027;47.420;9.310;2024-01-07T03:34:10;7.93;;;5.78;;
82387;SDS011;72027;47.420;9.310;2024-01-07T03:36:38;9.15;;;6.18;;
82387;SDS011;72027;47.420;9.310;2024-01-07T03:39:06;7.93;;;5.82;;
82387;SDS011;72027;47.420;9.310;2024-01-07T03:41:34;6.68;;;5.15;;
82387;SDS011;72027;47.420;9.310;2024-01-07T03:44:02;7.93;;;5.40;;
82387;SDS011;72027;47.420;9.310;2024-01-07T03:46:30;9.60;;;6.03;;
82387;SDS011;72027;47.420;9.310;2024-01-07T03:48:58;10.23;;;5.22;;
82387;SDS011;72027;47.420;9.310;2024-01-07T03:51:27;8.82;;;6.38;;
82387;SDS011;72027;47.420;9.310;2024-01-07T03:53:55;6.55;;;4.78;;
82387;SDS011;72027;47.420;9.310;2024-01-07T03:56:23;7.80;;;5.35;;
82387;SDS011;72027;47.420;9.310;2024-01-07T03:58:51;10.55;;;6.78;;
82387;SDS011;72027;47.420;9.310;2024-01-07T04:01:19;6.50;;;5.03;;
82387;SDS011;72027;47.420;9.310;2024-01-07T04:03:47;8.63;;;5.70;;
82387;SDS011;72027;47.420;9.310;2024-01-07T04:06:15;8.75;;;6.03;;
82387;SDS011;72027;47.420;9.310;2024-01-07T04:08:44;8.48;;;6.18;;
82387;SDS011;72027;47.420;9.310;2024-01-07T04:11:12;7.25;;;5.75;;
82387;SDS011;72027;47.420;9.310;2024-01-07T04:13:39;11.05;;;5.95;;
82387;SDS011;72027;47.420;9.310;2024-01-07T04:16:15;9.93;;;6.65;;
82387;SDS011;72027;47.420;9.310;2024-01-07T04:18:43;8.73;;;6.05;;
82387;SDS011;72027;47.420;9.310;2024-01-07T04:21:12;8.55;;;5.57;;
82387;SDS011;72027;47.420;9.310;2024-01-07T04:23:40;9.05;;;6.18;;
82387;SDS011;72027;47.420;9.310;2024-01-07T04:26:09;8.43;;;6.07;;
82387;SDS011;72027;47.420;9.310;2024-01-07T04:28:40;10.80;;;6.80;;
82387;SDS011;72027;47.420;9.310;2024-01-07T04:31:08;8.25;;;6.18;;
82387;SDS011;72027;47.420;9.310;2024-01-07T04:33:36;8.95;;;6.30;;
82387;SDS011;72027;47.420;9.310;2024-01-07T04:36:04;7.60;;;5.90;;
82387;SDS011;72027;47.420;9.310;2024-01-07T04:38:33;8.40;;;5.53;;
82387;SDS011;72027;47.420;9.310;2024-01-07T04:41:02;7.97;;;5.45;;
82387;SDS011;72027;47.420;9.310;2024-01-07T04:43:31;9.05;;;6.45;;
82387;SDS011;72027;47.420;9.310;2024-01-07T04:45:59;10.77;;;6.72;;
82387;SDS011;72027;47.420;9.310;2024-01-07T04:48:26;9.43;;;5.68;;
82387;SDS011;72027;47.420;9.310;2024-01-07T04:50:54;9.93;;;6.07;;
82387;SDS011;72027;47.420;9.310;2024-01-07T04:53:22;8.77;;;6.25;;
82387;SDS011;72027;47.420;9.310;2024-01-07T04:55:50;7.03;;;4.72;;
82387;SDS011;72027;47.420;9.310;2024-01-07T04:58:18;7.68;;;4.78;;
82387;SDS011;72027;47.420;9.310;2024-01-07T05:00:47;8.60;;;4.68;;
82387;SDS011;72027;47.420;9.310;2024-01-07T05:03:15;5.93;;;4.70;;
82387;SDS011;72027;47.420;9.310;2024-01-07T05:05:43;6.75;;;5.13;;
82387;SDS011;72027;47.420;9.310;2024-01-07T05:08:11;8.77;;;5.60;;
82387;SDS011;72027;47.420;9.310;2024-01-07T05:10:39;8.10;;;5.80;;
82387;SDS011;72027;47.420;9.310;2024-01-07T05:13:07;7.57;;;5.45;;
82387;SDS011;72027;47.420;9.310;2024-01-07T05:15:35;8.63;;;5.65;;
82387;SDS011;72027;47.420;9.310;2024-01-07T05:18:04;9.23;;;6.43;;
82387;SDS011;72027;47.420;9.310;2024-01-07T05:20:34;9.25;;;6.50;;
82387;SDS011;72027;47.420;9.310;2024-01-07T05:23:02;9.23;;;6.05;;
82387;SDS011;72027;47.420;9.310;2024-01-07T05:25:30;9.07;;;6.22;;
82387;SDS011;72027;47.420;9.310;2024-01-07T05:27:58;9.38;;;6.22;;
82387;SDS011;72027;47.420;9.310;2024-01-07T05:30:26;7.70;;;5.57;;
82387;SDS011;72027;47.420;9.310;2024-01-07T05:32:54;7.53;;;5.55;;
82387;SDS011;72027;47.420;9.310;2024-01-07T05:35:23;9.00;;;5.75;;
82387;SDS011;72027;47.420;9.310;2024-01-07T05:37:51;8.57;;;5.60;;
82387;SDS011;72027;47.420;9.310;2024-01-07T05:40:19;8.25;;;4.90;;
82387;SDS011;72027;47.420;9.310;2024-01-07T05:42:47;9.02;;;6.55;;
82387;SDS011;72027;47.420;9.310;2024-01-07T05:45:15;8.60;;;6.53;;
82387;SDS011;72027;47.420;9.310;2024-01-07T05:47:43;7.65;;;5.22;;
82387;SDS011;72027;47.420;9.310;2024-01-07T05:50:10;7.35;;;5.28;;
82387;SDS011;72027;47.420;9.310;2024-01-07T05:52:43;7.22;;;5.32;;
82387;SDS011;72027;47.420;9.310;2024-01-07T05:55:11;6.47;;;4.72;;
82387;SDS011;72027;47.420;9.310;2024-01-07T05:57:39;5.85;;;4.72;;
82387;SDS011;72027;47.420;9.310;2024-01-07T06:00:07;6.72;;;4.70;;
82387;SDS011;72027;47.420;9.310;2024-01-07T06:02:40;8.85;;;6.07;;
82387;SDS011;72027;47.420;9.310;2024-01-07T06:05:08;7.15;;;4.97;;
82387;SDS011;72027;47.420;9.310;2024-01-07T06:07:36;6.28;;;4.10;;
82387;SDS011;72027;47.420;9.310;2024-01-07T06:10:06;6.05;;;4.00;;
82387;SDS011;72027;47.420;9.310;2024-01-07T06:12:34;5.05;;;4.03;;
82387;SDS011;72027;47.420;9.310;2024-01-07T06:15:02;5.45;;;4.25;;
82387;SDS011;72027;47.420;9.310;2024-01-07T06:17:31;4.35;;;3.65;;
82387;SDS011;72027;47.420;9.310;2024-01-07T06:19:59;5.32;;;4.00;;
82387;SDS011;72027;47.420;9.310;2024-01-07T06:22:27;7.03;;;4.63;;
82387;SDS011;72027;47.420;9.310;2024-01-07T06:24:55;10.77;;;5.40;;
82387;SDS011;72027;47.420;9.310;2024-01-07T06:27:24;25.50;;;5.90;;
82387;SDS011;72027;47.420;9.310;2024-01-07T06:29:52;7.10;;;5.38;;
82387;SDS011;72027;47.420;9.310;2024-01-07T06:32:20;5.40;;;3.88;;
82387;SDS011;72027;47.420;9.310;2024-01-07T06:34:48;5.65;;;3.90;;
82387;SDS011;72027;47.420;9.310;2024-01-07T06:37:15;5.47;;;3.95;;
82387;SDS011;72027;47.420;9.310;2024-01-07T06:39:43;7.75;;;4.85;;
82387;SDS011;72027;47.420;9.310;2024-01-07T06:42:11;6.07;;;4.47;;
82387;SDS011;72027;47.420;9.310;2024-01-07T06:44:41;6.75;;;5.15;;
82387;SDS011;72027;47.420;9.310;2024-01-07T06:47:08;6.25;;;4.68;;
82387;SDS011;72027;47.420;9.310;2024-01-07T06:49:36;8.23;;;4.43;;
82387;SDS011;72027;47.420;9.310;2024-01-07T06:52:05;6.20;;;4.28;;
82387;SDS011;72027;47.420;9.310;2024-01-07T06:54:33;6.78;;;4.30;;
82387;SDS011;72027;47.420;9.310;2024-01-07T06:57:01;7.13;;;4.82;;
82387;SDS011;72027;47.420;9.310;2024-01-07T06:59:29;5.78;;;4.15;;
82387;SDS011;72027;47.420;9.310;2024-01-07T07:01:59;5.20;;;3.97;;
82387;SDS011;72027;47.420;9.310;2024-01-07T07:04:27;5.35;;;4.15;;
82387;SDS011;72027;47.420;9.310;2024-01-07T07:06:55;10.48;;;5.85;;
82387;SDS011;72027;47.420;9.310;2024-01-07T07:09:23;9.65;;;5.57;;
82387;SDS011;72027;47.420;9.310;2024-01-07T07:11:52;7.03;;;4.93;;
82387;SDS011;72027;47.420;9.310;2024-01-07T07:14:21;7.13;;;4.72;;
82387;SDS011;72027;47.420;9.310;2024-01-07T07:16:49;8.95;;;6.25;;
82387;SDS011;72027;47.420;9.310;2024-01-07T07:19:18;8.50;;;5.47;;
82387;SDS011;72027;47.420;9.310;2024-01-07T07:21:46;8.32;;;5.03;;
82387;SDS011;72027;47.420;9.310;2024-01-07T07:24:14;7.22;;;4.80;;
82387;SDS011;72027;47.420;9.310;2024-01-07T07:26:42;7.78;;;4.68;;
82387;SDS011;72027;47.420;9.310;2024-01-07T07:29:10;9.93;;;6.28;;
82387;SDS011;72027;47.420;9.310;2024-01-07T07:31:37;6.97;;;5.00;;
82387;SDS011;72027;47.420;9.310;2024-01-07T07:34:09;6.80;;;4.93;;
82387;SDS011;72027;47.420;9.310;2024-01-07T07:36:39;8.40;;;4.65;;
82387;SDS011;72027;47.420;9.310;2024-01-07T07:39:09;7.80;;;4.88;;
82387;SDS011;72027;47.420;9.310;2024-01-07T07:41:38;8.80;;;5.18;;
82387;SDS011;72027;47.420;9.310;2024-01-07T07:44:07;9.65;;;5.53;;
82387;SDS011;72027;47.420;9.310;2024-01-07T07:46:34;6.80;;;4.72;;
82387;SDS011;72027;47.420;9.310;2024-01-07T07:49:02;8.25;;;6.18;;
82387;SDS011;72027;47.420;9.310;2024-01-07T07:51:30;10.73;;;5.93;;
82387;SDS011;72027;47.420;9.310;2024-01-07T07:53:59;7.30;;;4.32;;
82387;SDS011;72027;47.420;9.310;2024-01-07T07:56:27;6.97;;;4.10;;
82387;SDS011;72027;47.420;9.310;2024-01-07T07:58:55;6.45;;;4.63;;
82387;SDS011;72027;47.420;9.310;2024-01-07T08:01:23;6.85;;;4.43;;
82387;SDS011;72027;47.420;9.310;2024-01-07T08:03:51;7.07;;;4.60;;
82387;SDS011;72027;47.420;9.310;2024-01-07T08:06:19;6.82;;;4.60;;
82387;SDS011;72027;47.420;9.310;2024-01-07T08:08:48;6.30;;;4.60;;
82387;SDS011;72027;47.420;9.310;2024-01-07T08:11:17;6.78;;;4.80;;
82387;SDS011;72027;47.420;9.310;2024-01-07T08:13:45;8.57;;;5.25;;
82387;SDS011;72027;47.420;9.310;2024-01-07T08:16:14;6.93;;;4.50;;
82387;SDS011;72027;47.420;9.310;2024-01-07T08:18:47;7.13;;;4.40;;
82387;SDS011;72027;47.420;9.310;2024-01-07T08:21:16;7.40;;;4.78;;
82387;SDS011;72027;47.420;9.310;2024-01-07T08:23:44;8.10;;;5.78;;
82387;SDS011;72027;47.420;9.310;2024-01-07T08:26:12;8.18;;;6.18;;
82387;SDS011;72027;47.420;9.310;2024-01-07T08:28:41;8.70;;;6.63;;
82387;SDS011;72027;47.420;9.310;2024-01-07T08:31:10;9.60;;;6.60;;
82387;SDS011;72027;47.420;9.310;2024-01-07T08:33:37;8.35;;;6.03;;
82387;SDS011;72027;47.420;9.310;2024-01-07T08:36:06;8.88;;;6.50;;
82387;SDS011;72027;47.420;9.310;2024-01-07T08:38:34;8.68;;;6.38;;
82387;SDS011;72027;47.420;9.310;2024-01-07T08:41:02;8.60;;;5.95;;
82387;SDS011;72027;47.420;9.310;2024-01-07T08:43:30;7.00;;;5.35;;
82387;SDS011;72027;47.420;9.310;2024-01-07T08:46:00;8.10;;;5.47;;
82387;SDS011;72027;47.420;9.310;2024-01-07T08:48:27;6.20;;;4.25;;
82387;SDS011;72027;47.420;9.310;2024-01-07T08:50:58;7.13;;;4.97;;
82387;SDS011;72027;47.420;9.310;2024-01-07T08:53:26;7.43;;;4.90;;
82387;SDS011;72027;47.420;9.310;2024-01-07T08:55:54;6.82;;;4.93;;
82387;SDS011;72027;47.420;9.310;2024-01-07T08:58:22;7.95;;;5.35;;
82387;SDS011;72027;47.420;9.310;2024-01-07T09:00:50;8.25;;;5.68;;
82387;SDS011;72027;47.420;9.310;2024-01-07T09:03:19;9.43;;;6.18;;
82387;SDS011;72027;47.420;9.310;2024-01-07T09:05:47;9.20;;;6.50;;
82387;SDS011;72027;47.420;9.310;2024-01-07T09:08:15;8.10;;;6.22;;
82387;SDS011;72027;47.420;9.310;2024-01-07T09:10:43;9.00;;;5.80;;
82387;SDS011;72027;47.420;9.310;2024-01-07T09:13:11;11.13;;;6.78;;
82387;SDS011;72027;47.420;9.310;2024-01-07T09:15:40;8.98;;;6.43;;
82387;SDS011;72027;47.420;9.310;2024-01-07T09:18:12;9.95;;;6.80;;
82387;SDS011;72027;47.420;9.310;2024-01-07T09:20:41;9.32;;;6.60;;
82387;SDS011;72027;47.420;9.310;2024-01-07T09:23:09;10.32;;;6.88;;
82387;SDS011;72027;47.420;9.310;2024-01-07T09:25:36;9.65;;;6.38;;
82387;SDS011;72027;47.420;9.310;2024-01-07T09:28:05;9.70;;;6.72;;
82387;SDS011;72027;47.420;9.310;2024-01-07T09:30:34;11.10;;;6.97;;
82387;SDS011;72027;47.420;9.310;2024-01-07T09:33:05;12.23;;;7.20;;
82387;SDS011;72027;47.420;9.310;2024-01-07T09:35:43;10.85;;;7.15;;
82387;SDS011;72027;47.420;9.310;2024-01-07T09:38:11;10.10;;;7.07;;
82387;SDS011;72027;47.420;9.310;2024-01-07T09:40:40;11.07;;;6.32;;
82387;SDS011;72027;47.420;9.310;2024-01-07T09:43:09;9.32;;;6.90;;
82387;SDS011;72027;47.420;9.310;2024-01-07T09:45:38;11.00;;;7.07;;
82387;SDS011;72027;47.420;9.310;2024-01-07T09:48:10;9.35;;;6.15;;
82387;SDS011;72027;47.420;9.310;2024-01-07T09:50:41;9.75;;;5.78;;
82387;SDS011;72027;47.420;9.310;2024-01-07T09:53:21;10.07;;;6.70;;
82387;SDS011;72027;47.420;9.310;2024-01-07T09:55:56;11.07;;;6.55;;
82387;SDS011;72027;47.420;9.310;2024-01-07T09:58:32;9.35;;;6.47;;
82387;SDS011;72027;47.420;9.310;2024-01-07T10:01:00;10.10;;;6.82;;
82387;SDS011;72027;47.420;9.310;2024-01-07T10:03:33;10.45;;;6.65;;
82387;SDS011;72027;47.420;9.310;2024-01-07T10:06:02;11.88;;;7.70;;
82387;SDS011;72027;47.420;9.310;2024-01-07T10:08:36;12.55;;;7.38;;
82387;SDS011;72027;47.420;9.310;2024-01-07T10:11:04;11.85;;;7.78;;
82387;SDS011;72027;47.420;9.310;2024-01-07T10:13:32;12.73;;;7.78;;
82387;SDS011;72027;47.420;9.310;2024-01-07T10:16:00;12.02;;;8.23;;
82387;SDS011;72027;47.420;9.310;2024-01-07T10:18:28;12.43;;;8.48;;
82387;SDS011;72027;47.420;9.310;2024-01-07T10:21:01;15.40;;;9.48;;
82387;SDS011;72027;47.420;9.310;2024-01-07T10:23:31;14.82;;;8.95;;
82387;SDS011;72027;47.420;9.310;2024-01-07T10:26:00;13.90;;;8.52;;
82387;SDS011;72027;47.420;9.310;2024-01-07T10:28:33;13.25;;;8.57;;
82387;SDS011;72027;47.420;9.310;2024-01-07T10:31:01;14.30;;;7.80;;
82387;SDS011;72027;47.420;9.310;2024-01-07T10:33:32;13.65;;;7.85;;
82387;SDS011;72027;47.420;9.310;2024-01-07T10:36:01;12.77;;;7.82;;
82387;SDS011;72027;47.420;9.310;2024-01-07T10:38:31;12.63;;;7.53;;
82387;SDS011;72027;47.420;9.310;2024-01-07T10:41:01;11.18;;;7.50;;
82387;SDS011;72027;47.420;9.310;2024-01-07T10:43:29;13.60;;;7.32;;
82387;SDS011;72027;47.420;9.310;2024-01-07T10:45:58;10.18;;;6.55;;
82387;SDS011;72027;47.420;9.310;2024-01-07T10:48:30;9.95;;;6.60;;
82387;SDS011;72027;47.420;9.310;2024-01-07T10:51:00;10.82;;;6.68;;
82387;SDS011;72027;47.420;9.310;2024-01-07T10:53:33;9.57;;;5.82;;
82387;SDS011;72027;47.420;9.310;2024-01-07T10:58:39;9.15;;;6.15;;
82387;SDS011;72027;47.420;9.310;2024-01-07T11:01:12;7.28;;;5.05;;
82387;SDS011;72027;47.420;9.310;2024-01-07T11:03:43;7.70;;;5.25;;
82387;SDS011;72027;47.420;9.310;2024-01-07T11:06:19;7.35;;;4.53;;
82387;SDS011;72027;47.420;9.310;2024-01-07T11:08:55;9.18;;;5.72;;
82387;SDS011;72027;47.420;9.310;2024-01-07T11:11:35;8.13;;;5.22;;
82387;SDS011;72027;47.420;9.310;2024-01-07T11:17:07;8.88;;;6.10;;
82387;SDS011;72027;47.420;9.310;2024-01-07T11:19:35;10.60;;;7.03;;
82387;SDS011;72027;47.420;9.310;2024-01-07T11:24:51;10.50;;;6.57;;
82387;SDS011;72027;47.420;9.310;2024-01-07T11:27:26;10.75;;;7.40;;
82387;SDS011;72027;47.420;9.310;2024-01-07T11:30:18;11.05;;;7.35;;
82387;SDS011;72027;47.420;9.310;2024-01-07T11:32:47;10.45;;;6.57;;
82387;SDS011;72027;47.420;9.310;2024-01-07T11:35:19;11.32;;;7.07;;
82387;SDS011;72027;47.420;9.310;2024-01-07T11:38:09;9.50;;;6.80;;
82387;SDS011;72027;47.420;9.310;2024-01-07T11:40:37;8.90;;;6.60;;
82387;SDS011;72027;47.420;9.310;2024-01-07T11:43:08;7.10;;;5.22;;
82387;SDS011;72027;47.420;9.310;2024-01-07T11:45:37;10.00;;;6.57;;
82387;SDS011;72027;47.420;9.310;2024-01-07T11:48:05;9.20;;;6.85;;
82387;SDS011;72027;47.420;9.310;2024-01-07T11:50:34;10.50;;;6.10;;
82387;SDS011;72027;47.420;9.310;2024-01-07T11:53:03;11.60;;;7.45;;
82387;SDS011;72027;47.420;9.310;2024-01-07T11:55:31;10.25;;;7.05;;
82387;SDS011;72027;47.420;9.310;2024-01-07T11:58:01;11.85;;;6.95;;
82387;SDS011;72027;47.420;9.310;2024-01-07T12:00:32;13.88;;;7.90;;
82387;SDS011;72027;47.420;9.310;2024-01-07T12:03:00;12.25;;;7.55;;
82387;SDS011;72027;47.420;9.310;2024-01-07T12:05:29;10.10;;;7.05;;
82387;SDS011;72027;47.420;9.310;2024-01-07T12:07:57;9.32;;;6.20;;
82387;SDS011;72027;47.420;9.310;2024-01-07T12:10:27;13.23;;;7.93;;
82387;SDS011;72027;47.420;9.310;2024-01-07T12:12:55;9.57;;;6.78;;
82387;SDS011;72027;47.420;9.310;2024-01-07T12:15:23;9.82;;;5.63;;
82387;SDS011;72027;47.420;9.310;2024-01-07T12:17:57;9.50;;;6.43;;
82387;SDS011;72027;47.420;9.310;2024-01-07T12:20:27;10.40;;;6.35;;
82387;SDS011;72027;47.420;9.310;2024-01-07T12:22:55;8.10;;;5.15;;
82387;SDS011;72027;47.420;9.310;2024-01-07T12:25:25;10.35;;;5.55;;
82387;SDS011;72027;47.420;9.310;2024-01-07T12:27:53;11.45;;;6.50;;
82387;SDS011;72027;47.420;9.310;2024-01-07T12:30:23;10.38;;;6.43;;
82387;SDS011;72027;47.420;9.310;2024-01-07T12:32:52;8.80;;;6.18;;
82387;SDS011;72027;47.420;9.310;2024-01-07T12:35:22;9.70;;;5.47;;
82387;SDS011;72027;47.420;9.310;2024-01-07T12:37:52;8.95;;;5.95;;
82387;SDS011;72027;47.420;9.310;2024-01-07T12:40:22;10.02;;;6.35;;
82387;SDS011;72027;47.420;9.310;2024-01-07T12:42:51;6.25;;;5.28;;
82387;SDS011;72027;47.420;9.310;2024-01-07T12:45:19;8.15;;;5.03;;
82387;SDS011;72027;47.420;9.310;2024-01-07T12:47:47;7.28;;;5.20;;
82387;SDS011;72027;47.420;9.310;2024-01-07T12:50:15;7.70;;;5.00;;
82387;SDS011;72027;47.420;9.310;2024-01-07T12:52:44;9.15;;;5.07;;
82387;SDS011;72027;47.420;9.310;2024-01-07T12:55:15;6.43;;;4.85;;
82387;SDS011;72027;47.420;9.310;2024-01-07T12:57:43;6.82;;;4.25;;
82387;SDS011;72027;47.420;9.310;2024-01-07T13:00:11;7.30;;;5.50;;
82387;SDS011;72027;47.420;9.310;2024-01-07T13:02:40;7.75;;;5.50;;
82387;SDS011;72027;47.420;9.310;2024-01-07T13:05:24;7.80;;;4.75;;
82387;SDS011;72027;47.420;9.310;2024-01-07T13:07:54;7.30;;;4.78;;
82387;SDS011;72027;47.420;9.310;2024-01-07T13:10:22;7.38;;;4.88;;
82387;SDS011;72027;47.420;9.310;2024-01-07T13:12:50;6.57;;;5.15;;
82387;SDS011;72027;47.420;9.310;2024-01-07T13:15:20;6.10;;;4.47;;
82387;SDS011;72027;47.420;9.310;2024-01-07T13:17:49;7.30;;;4.57;;
82387;SDS011;72027;47.420;9.310;2024-01-07T13:20:17;7.88;;;5.00;;
82387;SDS011;72027;47.420;9.310;2024-01-07T13:22:46;7.55;;;4.82;;
82387;SDS011;72027;47.420;9.310;2024-01-07T13:25:15;7.25;;;4.60;;
82387;SDS011;72027;47.420;9.310;2024-01-07T13:27:44;6.65;;;4.85;;
82387;SDS011;72027;47.420;9.310;2024-01-07T13:30:14;7.43;;;4.95;;
82387;SDS011;72027;47.420;9.310;2024-01-07T13:32:43;7.13;;;4.28;;
82387;SDS011;72027;47.420;9.310;2024-01-07T13:35:11;7.38;;;4.38;;
82387;SDS011;72027;47.420;9.310;2024-01-07T13:37:40;7.28;;;5.03;;
82387;SDS011;72027;47.420;9.310;2024-01-07T13:40:09;7.65;;;4.80;;
82387;SDS011;72027;47.420;9.310;2024-01-07T13:42:39;7.30;;;5.40;;
82387;SDS011;72027;47.420;9.310;2024-01-07T13:45:09;9.02;;;4.80;;
82387;SDS011;72027;47.420;9.310;2024-01-07T13:47:41;8.63;;;5.53;;
82387;SDS011;72027;47.420;9.310;2024-01-07T13:50:13;8.65;;;5.15;;
82387;SDS011;72027;47.420;9.310;2024-01-07T13:52:43;6.90;;;5.20;;
82387;SDS011;72027;47.420;9.310;2024-01-07T13:55:11;7.68;;;4.53;;
82387;SDS011;72027;47.420;9.310;2024-01-07T13:57:41;8.15;;;4.95;;
82387;SDS011;72027;47.420;9.310;2024-01-07T14:00:09;6.32;;;4.53;;
82387;SDS011;72027;47.420;9.310;2024-01-07T14:02:44;7.65;;;5.25;;
82387;SDS011;72027;47.420;9.310;2024-01-07T14:05:13;6.93;;;4.50;;
82387;SDS011;72027;47.420;9.310;2024-01-07T14:07:41;6.95;;;4.63;;
82387;SDS011;72027;47.420;9.310;2024-01-07T14:10:09;7.97;;;4.80;;
82387;SDS011;72027;47.420;9.310;2024-01-07T14:12:37;8.13;;;4.80;;
82387;SDS011;72027;47.420;9.310;2024-01-07T14:15:07;8.80;;;4.78;;
82387;SDS011;72027;47.420;9.310;2024-01-07T14:17:35;9.55;;;5.55;;
82387;SDS011;72027;47.420;9.310;2024-01-07T14:20:03;9.32;;;4.97;;
82387;SDS011;72027;47.420;9.310;2024-01-07T14:22:32;7.55;;;4.78;;
82387;SDS011;72027;47.420;9.310;2024-01-07T14:25:00;13.38;;;6.93;;
82387;SDS011;72027;47.420;9.310;2024-01-07T14:27:29;7.45;;;4.65;;
82387;SDS011;72027;47.420;9.310;2024-01-07T14:29:57;8.27;;;4.50;;
82387;SDS011;72027;47.420;9.310;2024-01-07T14:32:26;6.82;;;4.25;;
82387;SDS011;72027;47.420;9.310;2024-01-07T14:34:57;7.32;;;4.30;;
82387;SDS011;72027;47.420;9.310;2024-01-07T14:37:25;7.57;;;4.35;;
82387;SDS011;72027;47.420;9.310;2024-01-07T14:39:54;8.10;;;5.35;;
82387;SDS011;72027;47.420;9.310;2024-01-07T14:42:24;6.90;;;3.92;;
82387;SDS011;72027;47.420;9.310;2024-01-07T14:44:52;7.68;;;4.30;;
82387;SDS011;72027;47.420;9.310;2024-01-07T14:47:19;6.15;;;4.22;;
82387;SDS011;72027;47.420;9.310;2024-01-07T14:49:49;10.18;;;4.85;;
82387;SDS011;72027;47.420;9.310;2024-01-07T14:52:17;8.57;;;5.32;;
82387;SDS011;72027;47.420;9.310;2024-01-07T14:54:45;7.80;;;5.13;;
82387;SDS011;72027;47.420;9.310;2024-01-07T14:57:13;7.38;;;4.70;;
82387;SDS011;72027;47.420;9.310;2024-01-07T14:59:41;8.05;;;4.32;;
82387;SDS011;72027;47.420;9.310;2024-01-07T15:02:09;10.50;;;5.20;;